Betty R Gambarella — WDJ6855 — position and weather

sailwx.info

Track history (hours):
 
Tides and Currents Weather Stations Pressure Air Temp Water Temp Dewpoint Dewpoint Depression Visibility Wind Speed Wind Dir Waves Ship Positions

Betty R Gambarella

Owner: CURTIN MARITIME CORP, LONG BEACH, CA. More information available from US FCC via Universal Licensing System and Coast Guard Vessel Documentation Center.

Last reported at 2018-Mar-03 23:34 UTC. Time now 2018-Jun-20 15:14 UTC.
Position N 09°28' W 079°55'.
Warning: this ship's position is months out of date.

Length 33 m; draft 3.5 m.

Type: . MMSI: 368000890.

Date/timePositionNaut miles runAvg speedWind from/ knotsBaromVisibWave heightAir tempDewpointWater temp
2018-Mar-03 23:34N 09°28' W 079°55'1 6.8
2018-Mar-03 23:29N 09°28' W 079°54'3 6.2
2018-Mar-03 23:00N 09°25' W 079°55'3 5.4
2018-Mar-03 22:30N 09°22' W 079°55'1 2.7
2018-Mar-03 22:00N 09°21' W 079°56'0 0.0
2018-Mar-03 21:29N 09°21' W 079°56'0 0.0
2018-Mar-03 20:59N 09°21' W 079°56'0 0.0
2018-Mar-03 20:29N 09°21' W 079°56'0 0.0
2018-Mar-03 19:59N 09°21' W 079°56'0 0.0
2018-Mar-03 19:29N 09°21' W 079°56'0 0.0
2018-Mar-03 19:00N 09°21' W 079°56'0 0.0
2018-Mar-03 18:30N 09°21' W 079°56'0 0.0
2018-Mar-03 18:00N 09°21' W 079°56'0 0.0
2018-Mar-03 17:30N 09°21' W 079°56'0 0.0
2018-Mar-03 16:36N 09°21' W 079°56'0 0.0
2018-Mar-03 16:30N 09°21' W 079°56'0 0.0
2018-Mar-03 16:00N 09°21' W 079°56'0 0.0
2018-Mar-03 15:30N 09°21' W 079°56'0 0.0
2018-Mar-03 15:00N 09°21' W 079°56'0 0.0
2018-Mar-03 14:30N 09°21' W 079°56'0 0.0
2018-Mar-03 13:51N 09°21' W 079°56'0 0.0
2018-Mar-03 13:30N 09°21' W 079°56'0 0.0
2018-Mar-03 13:00N 09°21' W 079°56'0 0.0
2018-Mar-03 12:30N 09°21' W 079°56'0 0.0
2018-Mar-03 12:00N 09°21' W 079°56'0 0.0
2018-Mar-03 11:30N 09°21' W 079°56'0 0.0
2018-Mar-03 11:00N 09°21' W 079°56'0 0.0
2018-Mar-03 10:31N 09°21' W 079°56'0 0.1
2018-Mar-03 10:00N 09°21' W 079°56'3 4.9
2018-Mar-03 09:30N 09°19' W 079°55'2 2.2
2018-Mar-03 08:28N 09°16' W 079°55'1 1.0
2018-Mar-03 07:50N 09°16' W 079°55'2 4.5
2018-Mar-03 07:19N 09°13' W 079°55'  
Track history (hours):
 
Tides and Currents Weather Stations Pressure Air Temp Water Temp Dewpoint Dewpoint Depression Visibility Wind Speed Wind Dir Waves Ship Positions

Betty R Gambarella

Owner: CURTIN MARITIME CORP, LONG BEACH, CA. More information available from US FCC via Universal Licensing System and Coast Guard Vessel Documentation Center.

Last reported at 2018-Mar-03 23:34 UTC. Time now 2018-Jun-20 15:14 UTC.
Position N 09°28' W 079°55'.
Warning: this ship's position is months out of date.

Length 33 m; draft 3.5 m.

Type: . MMSI: 368000890.

Date/timePositionNaut miles runAvg speedWind from/ knotsBaromVisibWave heightAir tempDewpointWater temp
2018-Mar-03 23:34N 09°28' W 079°55'1 6.8
2018-Mar-03 23:29N 09°28' W 079°54'3 6.2
2018-Mar-03 23:00N 09°25' W 079°55'3 5.4
2018-Mar-03 22:30N 09°22' W 079°55'1 2.7
2018-Mar-03 22:00N 09°21' W 079°56'0 0.0
2018-Mar-03 21:29N 09°21' W 079°56'0 0.0
2018-Mar-03 20:59N 09°21' W 079°56'0 0.0
2018-Mar-03 20:29N 09°21' W 079°56'0 0.0
2018-Mar-03 19:59N 09°21' W 079°56'0 0.0
2018-Mar-03 19:29N 09°21' W 079°56'0 0.0
2018-Mar-03 19:00N 09°21' W 079°56'0 0.0
2018-Mar-03 18:30N 09°21' W 079°56'0 0.0
2018-Mar-03 18:00N 09°21' W 079°56'0 0.0
2018-Mar-03 17:30N 09°21' W 079°56'0 0.0
2018-Mar-03 16:36N 09°21' W 079°56'0 0.0
2018-Mar-03 16:30N 09°21' W 079°56'0 0.0
2018-Mar-03 16:00N 09°21' W 079°56'0 0.0
2018-Mar-03 15:30N 09°21' W 079°56'0 0.0
2018-Mar-03 15:00N 09°21' W 079°56'0 0.0
2018-Mar-03 14:30N 09°21' W 079°56'0 0.0
2018-Mar-03 13:51N 09°21' W 079°56'0 0.0
2018-Mar-03 13:30N 09°21' W 079°56'0 0.0
2018-Mar-03 13:00N 09°21' W 079°56'0 0.0
2018-Mar-03 12:30N 09°21' W 079°56'0 0.0
2018-Mar-03 12:00N 09°21' W 079°56'0 0.0
2018-Mar-03 11:30N 09°21' W 079°56'0 0.0
2018-Mar-03 11:00N 09°21' W 079°56'0 0.0
2018-Mar-03 10:31N 09°21' W 079°56'0 0.1
2018-Mar-03 10:00N 09°21' W 079°56'3 4.9
2018-Mar-03 09:30N 09°19' W 079°55'2 2.2
2018-Mar-03 08:28N 09°16' W 079°55'1 1.0
2018-Mar-03 07:50N 09°16' W 079°55'2 4.5
2018-Mar-03 07:19N 09°13' W 079°55'  

Dump ship's entire track history